sensor_id;sensor_type;location;lat;lon;timestamp;P1;durP1;ratioP1;P2;durP2;ratioP2
54464;SDS011;40374;49.480;20.016;2022-08-03T00:02:15;56.70;;;40.17;;
54464;SDS011;40374;49.480;20.016;2022-08-03T00:04:43;63.25;;;42.15;;
54464;SDS011;40374;49.480;20.016;2022-08-03T00:07:10;59.10;;;43.13;;
54464;SDS011;40374;49.480;20.016;2022-08-03T00:09:40;46.90;;;34.45;;
54464;SDS011;40374;49.480;20.016;2022-08-03T00:12:07;37.78;;;28.63;;
54464;SDS011;40374;49.480;20.016;2022-08-03T00:14:34;32.58;;;25.02;;
54464;SDS011;40374;49.480;20.016;2022-08-03T00:17:02;30.83;;;24.90;;
54464;SDS011;40374;49.480;20.016;2022-08-03T00:19:29;28.08;;;21.90;;
54464;SDS011;40374;49.480;20.016;2022-08-03T00:21:57;24.10;;;19.52;;
54464;SDS011;40374;49.480;20.016;2022-08-03T00:24:24;23.05;;;20.13;;
54464;SDS011;40374;49.480;20.016;2022-08-03T00:26:52;25.55;;;21.98;;
54464;SDS011;40374;49.480;20.016;2022-08-03T00:29:19;23.25;;;19.02;;
54464;SDS011;40374;49.480;20.016;2022-08-03T00:31:46;27.65;;;20.80;;
54464;SDS011;40374;49.480;20.016;2022-08-03T00:34:27;25.63;;;20.20;;
54464;SDS011;40374;49.480;20.016;2022-08-03T00:37:14;24.02;;;20.60;;
54464;SDS011;40374;49.480;20.016;2022-08-03T00:39:42;25.85;;;21.70;;
54464;SDS011;40374;49.480;20.016;2022-08-03T00:42:11;28.17;;;22.38;;
54464;SDS011;40374;49.480;20.016;2022-08-03T00:44:39;29.02;;;24.42;;
54464;SDS011;40374;49.480;20.016;2022-08-03T00:47:07;28.90;;;23.15;;
54464;SDS011;40374;49.480;20.016;2022-08-03T00:49:36;30.33;;;23.85;;
54464;SDS011;40374;49.480;20.016;2022-08-03T00:52:10;35.90;;;26.77;;
54464;SDS011;40374;49.480;20.016;2022-08-03T00:54:37;50.38;;;27.27;;
54464;SDS011;40374;49.480;20.016;2022-08-03T00:57:05;39.33;;;28.55;;
54464;SDS011;40374;49.480;20.016;2022-08-03T00:59:32;41.35;;;28.48;;
54464;SDS011;40374;49.480;20.016;2022-08-03T01:02:00;37.75;;;28.23;;
54464;SDS011;40374;49.480;20.016;2022-08-03T01:04:28;34.75;;;26.90;;
54464;SDS011;40374;49.480;20.016;2022-08-03T01:09:37;30.88;;;24.75;;
54464;SDS011;40374;49.480;20.016;2022-08-03T01:12:10;32.97;;;25.58;;
54464;SDS011;40374;49.480;20.016;2022-08-03T01:14:49;35.25;;;27.83;;
54464;SDS011;40374;49.480;20.016;2022-08-03T01:17:43;30.50;;;23.33;;
54464;SDS011;40374;49.480;20.016;2022-08-03T01:20:08;21.98;;;18.88;;
54464;SDS011;40374;49.480;20.016;2022-08-03T01:22:52;19.83;;;17.30;;
54464;SDS011;40374;49.480;20.016;2022-08-03T01:28:18;17.05;;;15.23;;
54464;SDS011;40374;49.480;20.016;2022-08-03T01:30:47;17.20;;;14.38;;
54464;SDS011;40374;49.480;20.016;2022-08-03T01:33:16;17.38;;;15.43;;
54464;SDS011;40374;49.480;20.016;2022-08-03T01:36:03;18.55;;;15.43;;
54464;SDS011;40374;49.480;20.016;2022-08-03T01:38:48;34.95;;;16.67;;
54464;SDS011;40374;49.480;20.016;2022-08-03T01:41:17;40.90;;;16.90;;
54464;SDS011;40374;49.480;20.016;2022-08-03T01:43:47;59.08;;;19.58;;
54464;SDS011;40374;49.480;20.016;2022-08-03T01:46:37;98.18;;;23.02;;
54464;SDS011;40374;49.480;20.016;2022-08-03T01:49:08;127.05;;;26.55;;
54464;SDS011;40374;49.480;20.016;2022-08-03T01:51:39;198.80;;;29.92;;
54464;SDS011;40374;49.480;20.016;2022-08-03T01:54:28;183.82;;;31.98;;
54464;SDS011;40374;49.480;20.016;2022-08-03T01:56:56;175.70;;;30.65;;
54464;SDS011;40374;49.480;20.016;2022-08-03T01:59:23;144.63;;;32.13;;
54464;SDS011;40374;49.480;20.016;2022-08-03T02:01:51;179.20;;;34.10;;
54464;SDS011;40374;49.480;20.016;2022-08-03T02:04:40;171.60;;;34.25;;
54464;SDS011;40374;49.480;20.016;2022-08-03T02:07:08;212.65;;;34.13;;
54464;SDS011;40374;49.480;20.016;2022-08-03T02:09:37;199.73;;;34.63;;
54464;SDS011;40374;49.480;20.016;2022-08-03T02:12:09;196.68;;;34.53;;
54464;SDS011;40374;49.480;20.016;2022-08-03T02:14:38;166.40;;;35.47;;
54464;SDS011;40374;49.480;20.016;2022-08-03T02:17:06;174.98;;;36.65;;
54464;SDS011;40374;49.480;20.016;2022-08-03T02:19:34;119.53;;;32.08;;
54464;SDS011;40374;49.480;20.016;2022-08-03T02:22:03;63.05;;;31.67;;
54464;SDS011;40374;49.480;20.016;2022-08-03T02:24:31;78.90;;;34.38;;
54464;SDS011;40374;49.480;20.016;2022-08-03T02:26:58;53.95;;;34.10;;
54464;SDS011;40374;49.480;20.016;2022-08-03T02:29:28;63.20;;;33.58;;
54464;SDS011;40374;49.480;20.016;2022-08-03T02:32:11;78.28;;;30.73;;
54464;SDS011;40374;49.480;20.016;2022-08-03T02:34:41;63.40;;;30.67;;
54464;SDS011;40374;49.480;20.016;2022-08-03T02:37:10;145.75;;;34.63;;
54464;SDS011;40374;49.480;20.016;2022-08-03T02:39:37;135.15;;;33.88;;
54464;SDS011;40374;49.480;20.016;2022-08-03T02:42:06;273.02;;;35.30;;
54464;SDS011;40374;49.480;20.016;2022-08-03T02:44:35;161.70;;;33.72;;
54464;SDS011;40374;49.480;20.016;2022-08-03T02:47:04;221.77;;;35.80;;
54464;SDS011;40374;49.480;20.016;2022-08-03T02:49:32;228.07;;;37.65;;
54464;SDS011;40374;49.480;20.016;2022-08-03T02:52:20;222.27;;;37.22;;
54464;SDS011;40374;49.480;20.016;2022-08-03T02:54:53;279.98;;;37.88;;
54464;SDS011;40374;49.480;20.016;2022-08-03T02:57:21;281.83;;;38.15;;
54464;SDS011;40374;49.480;20.016;2022-08-03T02:59:49;195.07;;;37.40;;
54464;SDS011;40374;49.480;20.016;2022-08-03T03:02:17;123.85;;;35.65;;
54464;SDS011;40374;49.480;20.016;2022-08-03T03:04:45;136.07;;;34.63;;
54464;SDS011;40374;49.480;20.016;2022-08-03T03:07:34;122.25;;;32.90;;
54464;SDS011;40374;49.480;20.016;2022-08-03T03:10:22;106.93;;;33.22;;
54464;SDS011;40374;49.480;20.016;2022-08-03T03:12:51;92.60;;;31.92;;
54464;SDS011;40374;49.480;20.016;2022-08-03T03:15:19;95.82;;;31.65;;
54464;SDS011;40374;49.480;20.016;2022-08-03T03:17:47;117.57;;;33.28;;
54464;SDS011;40374;49.480;20.016;2022-08-03T03:20:15;126.72;;;34.33;;
54464;SDS011;40374;49.480;20.016;2022-08-03T03:22:57;90.50;;;33.60;;
54464;SDS011;40374;49.480;20.016;2022-08-03T03:25:25;87.80;;;35.20;;
54464;SDS011;40374;49.480;20.016;2022-08-03T03:27:53;98.03;;;34.30;;
54464;SDS011;40374;49.480;20.016;2022-08-03T03:30:20;81.68;;;35.60;;
54464;SDS011;40374;49.480;20.016;2022-08-03T03:32:48;58.08;;;35.45;;
54464;SDS011;40374;49.480;20.016;2022-08-03T03:35:18;80.10;;;35.40;;
54464;SDS011;40374;49.480;20.016;2022-08-03T03:37:45;122.07;;;44.08;;
54464;SDS011;40374;49.480;20.016;2022-08-03T03:40:13;106.07;;;39.03;;
54464;SDS011;40374;49.480;20.016;2022-08-03T03:42:40;135.48;;;39.40;;
54464;SDS011;40374;49.480;20.016;2022-08-03T03:45:07;92.47;;;35.83;;
54464;SDS011;40374;49.480;20.016;2022-08-03T03:47:35;87.40;;;33.45;;
54464;SDS011;40374;49.480;20.016;2022-08-03T03:50:03;89.22;;;33.15;;
54464;SDS011;40374;49.480;20.016;2022-08-03T03:52:32;59.30;;;31.52;;
54464;SDS011;40374;49.480;20.016;2022-08-03T03:55:00;104.05;;;38.85;;
54464;SDS011;40374;49.480;20.016;2022-08-03T03:57:27;101.68;;;36.60;;
54464;SDS011;40374;49.480;20.016;2022-08-03T03:59:55;87.88;;;33.55;;
54464;SDS011;40374;49.480;20.016;2022-08-03T04:02:22;124.40;;;38.20;;
54464;SDS011;40374;49.480;20.016;2022-08-03T04:04:50;95.40;;;33.90;;
54464;SDS011;40374;49.480;20.016;2022-08-03T04:07:45;85.43;;;34.42;;
54464;SDS011;40374;49.480;20.016;2022-08-03T04:10:32;182.48;;;37.22;;
54464;SDS011;40374;49.480;20.016;2022-08-03T04:13:18;147.98;;;33.95;;
54464;SDS011;40374;49.480;20.016;2022-08-03T04:15:47;188.25;;;37.58;;
54464;SDS011;40374;49.480;20.016;2022-08-03T04:18:16;188.88;;;38.42;;
54464;SDS011;40374;49.480;20.016;2022-08-03T04:20:45;63.53;;;32.80;;
54464;SDS011;40374;49.480;20.016;2022-08-03T04:23:14;103.63;;;34.13;;
54464;SDS011;40374;49.480;20.016;2022-08-03T04:25:42;92.55;;;34.00;;
54464;SDS011;40374;49.480;20.016;2022-08-03T04:28:10;82.47;;;31.40;;
54464;SDS011;40374;49.480;20.016;2022-08-03T04:31:00;116.68;;;31.73;;
54464;SDS011;40374;49.480;20.016;2022-08-03T04:33:33;150.52;;;31.52;;
54464;SDS011;40374;49.480;20.016;2022-08-03T04:36:03;137.05;;;31.95;;
54464;SDS011;40374;49.480;20.016;2022-08-03T04:38:31;164.15;;;32.78;;
54464;SDS011;40374;49.480;20.016;2022-08-03T04:41:00;195.32;;;34.65;;
54464;SDS011;40374;49.480;20.016;2022-08-03T04:43:28;247.82;;;36.40;;
54464;SDS011;40374;49.480;20.016;2022-08-03T04:45:56;169.45;;;38.25;;
54464;SDS011;40374;49.480;20.016;2022-08-03T04:48:24;250.70;;;40.00;;
54464;SDS011;40374;49.480;20.016;2022-08-03T04:50:51;207.82;;;39.13;;
54464;SDS011;40374;49.480;20.016;2022-08-03T04:53:19;163.35;;;36.95;;
54464;SDS011;40374;49.480;20.016;2022-08-03T04:55:47;139.43;;;35.00;;
54464;SDS011;40374;49.480;20.016;2022-08-03T04:58:14;224.73;;;41.10;;
54464;SDS011;40374;49.480;20.016;2022-08-03T05:00:42;193.70;;;35.90;;
54464;SDS011;40374;49.480;20.016;2022-08-03T05:03:11;204.30;;;34.92;;
54464;SDS011;40374;49.480;20.016;2022-08-03T05:05:51;291.08;;;34.40;;
54464;SDS011;40374;49.480;20.016;2022-08-03T05:08:27;153.73;;;29.70;;
54464;SDS011;40374;49.480;20.016;2022-08-03T05:10:55;84.97;;;29.20;;
54464;SDS011;40374;49.480;20.016;2022-08-03T05:13:25;106.95;;;25.83;;
54464;SDS011;40374;49.480;20.016;2022-08-03T05:15:52;90.35;;;25.77;;
54464;SDS011;40374;49.480;20.016;2022-08-03T05:18:19;76.38;;;25.50;;
54464;SDS011;40374;49.480;20.016;2022-08-03T05:20:47;80.35;;;25.23;;
54464;SDS011;40374;49.480;20.016;2022-08-03T05:23:14;79.90;;;22.92;;
54464;SDS011;40374;49.480;20.016;2022-08-03T05:25:41;136.70;;;25.08;;
54464;SDS011;40374;49.480;20.016;2022-08-03T05:28:15;64.65;;;22.23;;
54464;SDS011;40374;49.480;20.016;2022-08-03T05:30:43;100.90;;;23.13;;
54464;SDS011;40374;49.480;20.016;2022-08-03T05:33:10;98.68;;;22.35;;
54464;SDS011;40374;49.480;20.016;2022-08-03T05:35:38;84.75;;;22.95;;
54464;SDS011;40374;49.480;20.016;2022-08-03T05:38:25;29.38;;;20.67;;
54464;SDS011;40374;49.480;20.016;2022-08-03T05:41:03;130.20;;;19.98;;
54464;SDS011;40374;49.480;20.016;2022-08-03T05:43:53;81.55;;;17.52;;
54464;SDS011;40374;49.480;20.016;2022-08-03T05:46:20;62.25;;;17.33;;
54464;SDS011;40374;49.480;20.016;2022-08-03T05:48:48;45.90;;;15.13;;
54464;SDS011;40374;49.480;20.016;2022-08-03T05:51:16;40.63;;;15.57;;
54464;SDS011;40374;49.480;20.016;2022-08-03T05:53:43;85.50;;;16.52;;
54464;SDS011;40374;49.480;20.016;2022-08-03T05:56:10;22.15;;;15.05;;
54464;SDS011;40374;49.480;20.016;2022-08-03T05:58:45;42.22;;;14.77;;
54464;SDS011;40374;49.480;20.016;2022-08-03T06:01:14;23.77;;;15.02;;
54464;SDS011;40374;49.480;20.016;2022-08-03T06:03:42;41.53;;;15.05;;
54464;SDS011;40374;49.480;20.016;2022-08-03T06:06:09;36.25;;;15.02;;
54464;SDS011;40374;49.480;20.016;2022-08-03T06:08:38;26.40;;;13.60;;
54464;SDS011;40374;49.480;20.016;2022-08-03T06:11:05;37.25;;;13.38;;
54464;SDS011;40374;49.480;20.016;2022-08-03T06:13:33;24.52;;;12.90;;
54464;SDS011;40374;49.480;20.016;2022-08-03T06:16:00;13.98;;;11.88;;
54464;SDS011;40374;49.480;20.016;2022-08-03T06:18:27;38.97;;;13.18;;
54464;SDS011;40374;49.480;20.016;2022-08-03T06:20:55;19.75;;;14.88;;
54464;SDS011;40374;49.480;20.016;2022-08-03T06:23:22;21.10;;;14.23;;
54464;SDS011;40374;49.480;20.016;2022-08-03T06:26:10;28.60;;;15.82;;
54464;SDS011;40374;49.480;20.016;2022-08-03T06:28:39;21.15;;;16.02;;
54464;SDS011;40374;49.480;20.016;2022-08-03T06:31:23;24.77;;;15.23;;
54464;SDS011;40374;49.480;20.016;2022-08-03T06:34:00;24.05;;;14.77;;
54464;SDS011;40374;49.480;20.016;2022-08-03T06:36:48;16.80;;;14.10;;
54464;SDS011;40374;49.480;20.016;2022-08-03T06:39:18;17.42;;;14.63;;
54464;SDS011;40374;49.480;20.016;2022-08-03T06:41:45;19.33;;;14.10;;
54464;SDS011;40374;49.480;20.016;2022-08-03T06:44:13;20.65;;;15.70;;
54464;SDS011;40374;49.480;20.016;2022-08-03T06:46:40;17.60;;;15.65;;
54464;SDS011;40374;49.480;20.016;2022-08-03T06:49:12;21.63;;;17.35;;
54464;SDS011;40374;49.480;20.016;2022-08-03T06:51:39;19.63;;;16.50;;
54464;SDS011;40374;49.480;20.016;2022-08-03T06:54:26;24.95;;;14.18;;
54464;SDS011;40374;49.480;20.016;2022-08-03T06:56:58;17.50;;;13.75;;
54464;SDS011;40374;49.480;20.016;2022-08-03T06:59:25;22.38;;;14.32;;
54464;SDS011;40374;49.480;20.016;2022-08-03T07:02:13;19.60;;;14.55;;
54464;SDS011;40374;49.480;20.016;2022-08-03T07:04:45;16.15;;;14.02;;
54464;SDS011;40374;49.480;20.016;2022-08-03T07:07:12;14.73;;;13.25;;
54464;SDS011;40374;49.480;20.016;2022-08-03T07:09:40;21.35;;;14.35;;
54464;SDS011;40374;49.480;20.016;2022-08-03T07:12:22;17.63;;;14.43;;
54464;SDS011;40374;49.480;20.016;2022-08-03T07:14:49;19.17;;;13.82;;
54464;SDS011;40374;49.480;20.016;2022-08-03T07:17:16;20.55;;;14.15;;
54464;SDS011;40374;49.480;20.016;2022-08-03T07:19:44;21.80;;;14.35;;
54464;SDS011;40374;49.480;20.016;2022-08-03T07:22:11;19.23;;;13.13;;
54464;SDS011;40374;49.480;20.016;2022-08-03T07:24:38;17.10;;;13.07;;
54464;SDS011;40374;49.480;20.016;2022-08-03T07:27:08;18.83;;;14.32;;
54464;SDS011;40374;49.480;20.016;2022-08-03T07:29:36;16.88;;;13.38;;
54464;SDS011;40374;49.480;20.016;2022-08-03T07:32:03;17.67;;;11.88;;
54464;SDS011;40374;49.480;20.016;2022-08-03T07:34:30;18.60;;;13.07;;
54464;SDS011;40374;49.480;20.016;2022-08-03T07:36:58;15.13;;;11.70;;
54464;SDS011;40374;49.480;20.016;2022-08-03T07:39:25;13.45;;;11.85;;
54464;SDS011;40374;49.480;20.016;2022-08-03T07:41:52;13.90;;;11.43;;
54464;SDS011;40374;49.480;20.016;2022-08-03T07:44:20;16.70;;;12.13;;
54464;SDS011;40374;49.480;20.016;2022-08-03T07:46:48;14.43;;;11.50;;
54464;SDS011;40374;49.480;20.016;2022-08-03T07:49:17;20.35;;;12.43;;
54464;SDS011;40374;49.480;20.016;2022-08-03T07:51:45;12.55;;;10.95;;
54464;SDS011;40374;49.480;20.016;2022-08-03T07:54:32;15.77;;;11.57;;
54464;SDS011;40374;49.480;20.016;2022-08-03T07:56:59;14.00;;;11.10;;
54464;SDS011;40374;49.480;20.016;2022-08-03T07:59:27;12.80;;;10.80;;
54464;SDS011;40374;49.480;20.016;2022-08-03T08:02:14;14.77;;;11.48;;
54464;SDS011;40374;49.480;20.016;2022-08-03T08:04:42;13.30;;;11.32;;
54464;SDS011;40374;49.480;20.016;2022-08-03T08:07:09;22.48;;;11.25;;
54464;SDS011;40374;49.480;20.016;2022-08-03T08:09:37;13.82;;;11.07;;
54464;SDS011;40374;49.480;20.016;2022-08-03T08:12:04;15.38;;;11.93;;
54464;SDS011;40374;49.480;20.016;2022-08-03T08:14:41;14.63;;;11.85;;
54464;SDS011;40374;49.480;20.016;2022-08-03T08:17:11;15.80;;;12.13;;
54464;SDS011;40374;49.480;20.016;2022-08-03T08:19:39;21.88;;;13.15;;
54464;SDS011;40374;49.480;20.016;2022-08-03T08:22:17;16.85;;;10.90;;
54464;SDS011;40374;49.480;20.016;2022-08-03T08:24:57;16.75;;;11.35;;
54464;SDS011;40374;49.480;20.016;2022-08-03T08:27:25;15.02;;;9.93;;
54464;SDS011;40374;49.480;20.016;2022-08-03T08:29:52;18.45;;;10.02;;
54464;SDS011;40374;49.480;20.016;2022-08-03T08:32:22;13.52;;;9.52;;
54464;SDS011;40374;49.480;20.016;2022-08-03T08:34:49;13.00;;;9.60;;
54464;SDS011;40374;49.480;20.016;2022-08-03T08:37:16;12.93;;;9.40;;
54464;SDS011;40374;49.480;20.016;2022-08-03T08:39:44;11.77;;;8.80;;
54464;SDS011;40374;49.480;20.016;2022-08-03T08:42:11;12.68;;;8.73;;
54464;SDS011;40374;49.480;20.016;2022-08-03T08:44:39;12.07;;;6.85;;
54464;SDS011;40374;49.480;20.016;2022-08-03T08:47:06;7.75;;;6.35;;
54464;SDS011;40374;49.480;20.016;2022-08-03T08:49:34;14.07;;;6.20;;
54464;SDS011;40374;49.480;20.016;2022-08-03T08:52:02;8.52;;;5.40;;
54464;SDS011;40374;49.480;20.016;2022-08-03T08:54:51;9.52;;;4.20;;
54464;SDS011;40374;49.480;20.016;2022-08-03T08:57:21;8.27;;;4.50;;
54464;SDS011;40374;49.480;20.016;2022-08-03T09:00:09;8.70;;;3.88;;
54464;SDS011;40374;49.480;20.016;2022-08-03T09:02:40;8.07;;;4.10;;
54464;SDS011;40374;49.480;20.016;2022-08-03T09:05:12;7.13;;;4.95;;
54464;SDS011;40374;49.480;20.016;2022-08-03T09:07:43;10.25;;;4.53;;
54464;SDS011;40374;49.480;20.016;2022-08-03T09:10:11;20.67;;;4.78;;
54464;SDS011;40374;49.480;20.016;2022-08-03T09:12:43;8.88;;;4.22;;
54464;SDS011;40374;49.480;20.016;2022-08-03T09:15:30;8.15;;;4.50;;
54464;SDS011;40374;49.480;20.016;2022-08-03T09:17:59;15.25;;;5.47;;
54464;SDS011;40374;49.480;20.016;2022-08-03T09:20:27;12.75;;;3.63;;
54464;SDS011;40374;49.480;20.016;2022-08-03T09:22:59;10.80;;;4.80;;
54464;SDS011;40374;49.480;20.016;2022-08-03T09:25:31;12.07;;;4.45;;
54464;SDS011;40374;49.480;20.016;2022-08-03T09:30:32;11.25;;;5.32;;
54464;SDS011;40374;49.480;20.016;2022-08-03T09:33:01;5.75;;;3.10;;
54464;SDS011;40374;49.480;20.016;2022-08-03T09:35:29;8.35;;;4.72;;
54464;SDS011;40374;49.480;20.016;2022-08-03T09:38:21;5.15;;;4.20;;
54464;SDS011;40374;49.480;20.016;2022-08-03T09:40:54;4.72;;;3.08;;
54464;SDS011;40374;49.480;20.016;2022-08-03T09:43:26;6.60;;;3.63;;
54464;SDS011;40374;49.480;20.016;2022-08-03T09:46:03;13.80;;;6.63;;
54464;SDS011;40374;49.480;20.016;2022-08-03T09:48:31;6.20;;;2.80;;
54464;SDS011;40374;49.480;20.016;2022-08-03T09:51:03;3.22;;;2.72;;
54464;SDS011;40374;49.480;20.016;2022-08-03T09:53:51;3.60;;;3.20;;
54464;SDS011;40374;49.480;20.016;2022-08-03T09:56:44;22.85;;;6.35;;
54464;SDS011;40374;49.480;20.016;2022-08-03T09:59:21;2.97;;;2.67;;
54464;SDS011;40374;49.480;20.016;2022-08-03T10:01:49;5.13;;;2.72;;
54464;SDS011;40374;49.480;20.016;2022-08-03T10:04:16;8.63;;;3.40;;
54464;SDS011;40374;49.480;20.016;2022-08-03T10:06:44;7.22;;;3.28;;
54464;SDS011;40374;49.480;20.016;2022-08-03T10:09:13;5.80;;;2.97;;
54464;SDS011;40374;49.480;20.016;2022-08-03T10:11:42;6.50;;;3.03;;
54464;SDS011;40374;49.480;20.016;2022-08-03T10:14:09;3.17;;;2.90;;
54464;SDS011;40374;49.480;20.016;2022-08-03T10:16:38;5.93;;;2.58;;
54464;SDS011;40374;49.480;20.016;2022-08-03T10:19:06;4.38;;;3.03;;
54464;SDS011;40374;49.480;20.016;2022-08-03T10:21:35;2.80;;;2.60;;
54464;SDS011;40374;49.480;20.016;2022-08-03T10:24:07;11.02;;;3.20;;
54464;SDS011;40374;49.480;20.016;2022-08-03T10:26:36;9.13;;;2.95;;
54464;SDS011;40374;49.480;20.016;2022-08-03T10:29:17;6.07;;;3.15;;
54464;SDS011;40374;49.480;20.016;2022-08-03T10:31:47;3.63;;;2.80;;
54464;SDS011;40374;49.480;20.016;2022-08-03T10:34:27;4.80;;;2.60;;
54464;SDS011;40374;49.480;20.016;2022-08-03T10:36:57;6.18;;;3.08;;
54464;SDS011;40374;49.480;20.016;2022-08-03T10:39:26;7.45;;;2.83;;
54464;SDS011;40374;49.480;20.016;2022-08-03T10:41:54;2.95;;;2.65;;
54464;SDS011;40374;49.480;20.016;2022-08-03T10:44:32;6.25;;;2.85;;
54464;SDS011;40374;49.480;20.016;2022-08-03T10:47:03;2.83;;;2.63;;
54464;SDS011;40374;49.480;20.016;2022-08-03T10:49:31;5.00;;;2.65;;
54464;SDS011;40374;49.480;20.016;2022-08-03T10:52:01;2.90;;;2.67;;
54464;SDS011;40374;49.480;20.016;2022-08-03T10:54:40;3.28;;;2.90;;
54464;SDS011;40374;49.480;20.016;2022-08-03T10:57:48;4.30;;;3.28;;
54464;SDS011;40374;49.480;20.016;2022-08-03T11:00:22;6.82;;;2.80;;
54464;SDS011;40374;49.480;20.016;2022-08-03T11:03:03;4.03;;;2.90;;
54464;SDS011;40374;49.480;20.016;2022-08-03T11:05:37;5.13;;;2.97;;
54464;SDS011;40374;49.480;20.016;2022-08-03T11:10:44;6.03;;;2.80;;
54464;SDS011;40374;49.480;20.016;2022-08-03T11:13:15;7.82;;;3.03;;
54464;SDS011;40374;49.480;20.016;2022-08-03T11:15:44;4.22;;;3.13;;
54464;SDS011;40374;49.480;20.016;2022-08-03T11:18:13;2.88;;;2.65;;
54464;SDS011;40374;49.480;20.016;2022-08-03T11:20:53;7.82;;;3.13;;
54464;SDS011;40374;49.480;20.016;2022-08-03T11:26:27;8.07;;;3.20;;
54464;SDS011;40374;49.480;20.016;2022-08-03T11:29:06;8.07;;;2.90;;
54464;SDS011;40374;49.480;20.016;2022-08-03T11:31:42;5.22;;;2.80;;
54464;SDS011;40374;49.480;20.016;2022-08-03T11:34:17;6.43;;;2.80;;
54464;SDS011;40374;49.480;20.016;2022-08-03T11:39:39;8.10;;;3.03;;
54464;SDS011;40374;49.480;20.016;2022-08-03T11:44:50;4.78;;;2.50;;
54464;SDS011;40374;49.480;20.016;2022-08-03T11:47:17;4.50;;;2.60;;
54464;SDS011;40374;49.480;20.016;2022-08-03T11:49:46;5.72;;;2.58;;
54464;SDS011;40374;49.480;20.016;2022-08-03T11:52:17;3.05;;;2.53;;
54464;SDS011;40374;49.480;20.016;2022-08-03T11:54:54;3.50;;;2.75;;
54464;SDS011;40374;49.480;20.016;2022-08-03T11:57:41;7.20;;;2.47;;
54464;SDS011;40374;49.480;20.016;2022-08-03T12:00:30;8.38;;;2.95;;
54464;SDS011;40374;49.480;20.016;2022-08-03T12:02:59;5.70;;;2.80;;
54464;SDS011;40374;49.480;20.016;2022-08-03T12:08:00;3.40;;;2.70;;
54464;SDS011;40374;49.480;20.016;2022-08-03T12:10:32;4.90;;;2.85;;
54464;SDS011;40374;49.480;20.016;2022-08-03T12:13:00;3.15;;;2.90;;
54464;SDS011;40374;49.480;20.016;2022-08-03T12:15:28;2.97;;;2.63;;
54464;SDS011;40374;49.480;20.016;2022-08-03T12:17:56;5.05;;;2.60;;
54464;SDS011;40374;49.480;20.016;2022-08-03T12:20:25;4.00;;;3.03;;
54464;SDS011;40374;49.480;20.016;2022-08-03T12:23:04;11.55;;;3.30;;
54464;SDS011;40374;49.480;20.016;2022-08-03T12:25:32;2.97;;;2.60;;
54464;SDS011;40374;49.480;20.016;2022-08-03T12:28:27;7.13;;;2.95;;
54464;SDS011;40374;49.480;20.016;2022-08-03T12:31:06;4.35;;;2.85;;
54464;SDS011;40374;49.480;20.016;2022-08-03T12:33:55;8.10;;;2.80;;
54464;SDS011;40374;49.480;20.016;2022-08-03T12:36:25;5.15;;;2.70;;
54464;SDS011;40374;49.480;20.016;2022-08-03T12:38:57;3.75;;;2.92;;
54464;SDS011;40374;49.480;20.016;2022-08-03T12:41:29;8.95;;;2.78;;
54464;SDS011;40374;49.480;20.016;2022-08-03T12:43:57;3.35;;;2.65;;
54464;SDS011;40374;49.480;20.016;2022-08-03T12:46:28;5.53;;;3.05;;
54464;SDS011;40374;49.480;20.016;2022-08-03T12:48:56;9.25;;;2.80;;
54464;SDS011;40374;49.480;20.016;2022-08-03T12:51:25;3.53;;;2.60;;
54464;SDS011;40374;49.480;20.016;2022-08-03T12:53:53;3.90;;;2.83;;
54464;SDS011;40374;49.480;20.016;2022-08-03T12:56:20;4.15;;;2.65;;
54464;SDS011;40374;49.480;20.016;2022-08-03T12:58:48;3.00;;;2.55;;
54464;SDS011;40374;49.480;20.016;2022-08-03T13:01:19;7.50;;;3.20;;
54464;SDS011;40374;49.480;20.016;2022-08-03T13:03:52;7.25;;;3.13;;
54464;SDS011;40374;49.480;20.016;2022-08-03T13:06:24;10.13;;;4.78;;
54464;SDS011;40374;49.480;20.016;2022-08-03T13:09:04;4.03;;;2.67;;
54464;SDS011;40374;49.480;20.016;2022-08-03T13:11:32;4.97;;;3.17;;
54464;SDS011;40374;49.480;20.016;2022-08-03T13:14:19;3.17;;;2.63;;
54464;SDS011;40374;49.480;20.016;2022-08-03T13:16:47;7.38;;;2.80;;
54464;SDS011;40374;49.480;20.016;2022-08-03T13:19:15;2.97;;;2.50;;
54464;SDS011;40374;49.480;20.016;2022-08-03T13:21:43;3.20;;;2.75;;
54464;SDS011;40374;49.480;20.016;2022-08-03T13:24:31;3.70;;;2.75;;
54464;SDS011;40374;49.480;20.016;2022-08-03T13:26:58;10.32;;;3.08;;
54464;SDS011;40374;49.480;20.016;2022-08-03T13:29:25;5.15;;;3.00;;
54464;SDS011;40374;49.480;20.016;2022-08-03T13:31:53;4.18;;;3.20;;
54464;SDS011;40374;49.480;20.016;2022-08-03T13:34:20;4.97;;;3.10;;
54464;SDS011;40374;49.480;20.016;2022-08-03T13:36:50;8.20;;;2.95;;
54464;SDS011;40374;49.480;20.016;2022-08-03T13:39:35;3.88;;;3.30;;
54464;SDS011;40374;49.480;20.016;2022-08-03T13:42:23;8.07;;;3.08;;
54464;SDS011;40374;49.480;20.016;2022-08-03T13:44:51;5.72;;;3.08;;
54464;SDS011;40374;49.480;20.016;2022-08-03T13:47:18;7.40;;;2.88;;
54464;SDS011;40374;49.480;20.016;2022-08-03T13:49:46;5.07;;;3.30;;
54464;SDS011;40374;49.480;20.016;2022-08-03T13:52:31;3.42;;;2.80;;
54464;SDS011;40374;49.480;20.016;2022-08-03T13:54:59;7.10;;;2.88;;
54464;SDS011;40374;49.480;20.016;2022-08-03T13:57:27;7.85;;;3.38;;
54464;SDS011;40374;49.480;20.016;2022-08-03T14:00:15;7.13;;;3.35;;
54464;SDS011;40374;49.480;20.016;2022-08-03T14:03:00;7.10;;;2.72;;
54464;SDS011;40374;49.480;20.016;2022-08-03T14:05:39;4.55;;;3.47;;
54464;SDS011;40374;49.480;20.016;2022-08-03T14:08:06;6.05;;;3.67;;
54464;SDS011;40374;49.480;20.016;2022-08-03T14:10:34;5.65;;;3.33;;
54464;SDS011;40374;49.480;20.016;2022-08-03T14:13:03;4.82;;;3.40;;
54464;SDS011;40374;49.480;20.016;2022-08-03T14:15:30;3.78;;;3.42;;
54464;SDS011;40374;49.480;20.016;2022-08-03T14:18:03;7.50;;;3.40;;
54464;SDS011;40374;49.480;20.016;2022-08-03T14:20:31;3.90;;;3.50;;
54464;SDS011;40374;49.480;20.016;2022-08-03T14:23:14;6.32;;;3.58;;
54464;SDS011;40374;49.480;20.016;2022-08-03T14:25:42;6.70;;;3.38;;
54464;SDS011;40374;49.480;20.016;2022-08-03T14:28:21;4.55;;;4.07;;
54464;SDS011;40374;49.480;20.016;2022-08-03T14:30:50;4.07;;;3.67;;
54464;SDS011;40374;49.480;20.016;2022-08-03T14:33:18;4.93;;;3.90;;
54464;SDS011;40374;49.480;20.016;2022-08-03T14:35:45;7.57;;;4.20;;
54464;SDS011;40374;49.480;20.016;2022-08-03T14:38:12;7.82;;;4.75;;
54464;SDS011;40374;49.480;20.016;2022-08-03T14:40:40;7.80;;;4.95;;
54464;SDS011;40374;49.480;20.016;2022-08-03T14:43:07;5.10;;;4.40;;
54464;SDS011;40374;49.480;20.016;2022-08-03T14:45:35;5.75;;;4.70;;
54464;SDS011;40374;49.480;20.016;2022-08-03T14:48:02;10.95;;;4.25;;
54464;SDS011;40374;49.480;20.016;2022-08-03T14:50:51;5.45;;;4.63;;
54464;SDS011;40374;49.480;20.016;2022-08-03T14:53:21;11.00;;;4.63;;
54464;SDS011;40374;49.480;20.016;2022-08-03T14:55:48;5.50;;;4.40;;
54464;SDS011;40374;49.480;20.016;2022-08-03T14:58:18;4.75;;;4.20;;
54464;SDS011;40374;49.480;20.016;2022-08-03T15:00:47;5.78;;;4.65;;
54464;SDS011;40374;49.480;20.016;2022-08-03T15:03:15;6.97;;;5.13;;
54464;SDS011;40374;49.480;20.016;2022-08-03T15:05:43;11.80;;;5.13;;